Time;durP1;ratioP1;P1;durP2;ratioP2;P2;SDS_P1;SDS_P2;PMS_P1;PMS_P2;Temp;Humidity;BMP_temperature;BMP_pressure;BME280_temperature;BME280_humidity;BME280_pressure;Samples;Min_cycle;Max_cycle;Signal;HPM_P1;HPM_P2
2023/01/23 00:01:04;;;;;;;5.10;3.50;;;16.40;44.10;;;;;;5033442;28;20941;-77
2023/01/23 00:03:31;;;;;;;3.80;2.97;;;16.40;44.20;;;;;;5033314;28;20426;-76
2023/01/23 00:06:11;;;;;;;4.00;3.50;;;16.30;44.10;;;;;;5032289;28;20425;-76
2023/01/23 00:08:41;;;;;;;3.33;2.83;;;16.30;44.20;;;;;;5033925;28;20403;-80
2023/01/23 00:11:09;;;;;;;4.87;3.73;;;16.30;44.20;;;;;;5033839;28;20773;-78
2023/01/23 00:13:35;;;;;;;3.13;2.83;;;16.20;44.10;;;;;;5034044;28;20446;-77
2023/01/23 00:16:13;;;;;;;2.80;2.60;;;16.20;44.10;;;;;;5033213;28;20425;-78
2023/01/23 00:18:39;;;;;;;3.87;3.37;;;16.20;44.20;;;;;;5034128;28;20229;-77
2023/01/23 00:21:06;;;;;;;4.47;3.43;;;16.20;44.20;;;;;;5032855;28;20411;-77
2023/01/23 00:23:33;;;;;;;4.57;3.40;;;16.20;44.20;;;;;;5033124;28;20272;-77
2023/01/23 00:26:07;;;;;;;3.50;3.20;;;16.10;44.10;;;;;;5033944;28;20426;-77
2023/01/23 00:28:33;;;;;;;4.60;3.47;;;16.10;44.20;;;;;;5034258;28;20489;-77
2023/01/23 00:31:07;;;;;;;3.33;2.90;;;16.10;44.20;;;;;;5033978;28;20410;-77
2023/01/23 00:33:33;;;;;;;3.53;2.93;;;16.10;44.20;;;;;;5033989;28;20556;-77
2023/01/23 00:36:00;;;;;;;4.13;3.40;;;16.10;44.30;;;;;;5032622;28;20442;-77
2023/01/23 00:38:26;;;;;;;3.53;3.23;;;16.10;44.30;;;;;;5034162;28;20183;-77
2023/01/23 00:40:53;;;;;;;4.30;3.17;;;16.00;44.30;;;;;;5036776;28;20398;-77
2023/01/23 00:43:20;;;;;;;3.83;3.20;;;16.00;44.30;;;;;;5037745;28;20426;-77
2023/01/23 00:45:45;;;;;;;5.87;3.40;;;16.00;44.30;;;;;;5037798;28;20406;-76
2023/01/23 00:48:11;;;;;;;3.30;2.97;;;16.00;44.30;;;;;;5037680;28;20941;-76
2023/01/23 00:50:37;;;;;;;3.60;3.30;;;16.00;44.90;;;;;;5037530;28;20172;-76
2023/01/23 00:53:02;;;;;;;3.20;2.90;;;16.00;44.30;;;;;;5037557;28;20741;-76
2023/01/23 00:55:28;;;;;;;3.40;3.10;;;15.90;44.20;;;;;;5037360;28;20186;-77
2023/01/23 00:57:53;;;;;;;3.40;2.73;;;15.90;44.30;;;;;;5037413;28;20623;-76
2023/01/23 01:00:19;;;;;;;3.43;3.03;;;15.90;44.30;;;;;;5037512;28;20179;-76
2023/01/23 01:02:45;;;;;;;3.50;3.20;;;15.90;44.30;;;;;;5037006;28;20263;-76
2023/01/23 01:05:10;;;;;;;4.43;3.33;;;15.90;44.40;;;;;;5037298;28;20523;-77
2023/01/23 01:07:36;;;;;;;4.40;3.03;;;15.90;44.30;;;;;;5037334;28;20172;-77
2023/01/23 01:10:02;;;;;;;3.17;2.90;;;15.90;44.40;;;;;;5037280;28;20180;-77
2023/01/23 01:12:28;;;;;;;3.40;2.90;;;15.90;44.40;;;;;;5037357;28;20737;-76
2023/01/23 01:14:53;;;;;;;4.13;3.10;;;15.80;44.30;;;;;;5037235;28;20415;-76
2023/01/23 01:17:19;;;;;;;3.80;3.10;;;15.80;44.30;;;;;;5037289;28;20179;-77
2023/01/23 01:19:44;;;;;;;3.83;3.40;;;15.80;44.30;;;;;;5037165;28;20535;-76
2023/01/23 01:22:10;;;;;;;3.73;2.90;;;15.80;44.30;;;;;;5037501;28;20176;-77
2023/01/23 01:24:35;;;;;;;3.73;2.60;;;15.80;44.30;;;;;;5037395;28;20180;-76
2023/01/23 01:27:01;;;;;;;3.80;3.20;;;15.80;44.30;;;;;;5038265;28;20183;-76
2023/01/23 01:29:27;;;;;;;3.47;2.60;;;15.70;44.30;;;;;;5048882;28;20202;-77
2023/01/23 01:31:52;;;;;;;3.30;2.87;;;15.80;44.40;;;;;;5050381;28;20179;-76
2023/01/23 01:34:18;;;;;;;3.30;2.93;;;15.70;44.30;;;;;;5051615;28;20286;-77
2023/01/23 01:36:43;;;;;;;3.53;3.10;;;15.70;44.40;;;;;;5050528;28;20214;-76
2023/01/23 01:39:09;;;;;;;3.47;3.10;;;15.70;44.40;;;;;;5050429;28;20175;-77
2023/01/23 01:41:35;;;;;;;3.67;3.00;;;15.70;44.40;;;;;;5044112;28;20207;-77
2023/01/23 01:44:01;;;;;;;3.33;2.87;;;15.70;44.40;;;;;;5041898;28;20198;-77
2023/01/23 01:46:31;;;;;;;3.37;2.90;;;15.70;44.40;;;;;;5039438;28;20211;-77
2023/01/23 01:49:14;;;;;;;6.60;4.10;;;15.70;44.40;;;;;;5036922;28;20187;-77
2023/01/23 01:51:51;;;;;;;3.90;2.90;;;15.70;44.40;;;;;;5036726;28;20465;-77
2023/01/23 01:54:35;;;;;;;4.03;3.43;;;15.60;44.40;;;;;;5037006;28;20457;-76
2023/01/23 01:57:05;;;;;;;4.63;2.60;;;15.60;44.50;;;;;;5036485;28;20403;-77
2023/01/23 01:59:46;;;;;;;4.23;3.10;;;15.60;44.40;;;;;;5036445;28;20403;-77
2023/01/23 02:02:17;;;;;;;3.50;3.20;;;15.60;44.40;;;;;;5036332;28;20402;-76
2023/01/23 02:04:50;;;;;;;3.67;3.17;;;15.60;44.50;;;;;;5036420;28;20402;-76
2023/01/23 02:07:38;;;;;;;3.63;3.10;;;15.60;44.50;;;;;;5036254;28;20403;-76
2023/01/23 02:10:05;;;;;;;3.77;3.20;;;15.60;44.50;;;;;;5036355;28;20399;-76
2023/01/23 02:12:33;;;;;;;3.70;3.17;;;15.60;44.50;;;;;;5035674;28;20799;-76
2023/01/23 02:15:01;;;;;;;3.53;3.03;;;15.50;44.50;;;;;;5036029;28;20410;-76
2023/01/23 02:17:27;;;;;;;3.33;2.87;;;15.50;44.50;;;;;;5036061;28;20596;-76
2023/01/23 02:20:04;;;;;;;3.37;2.43;;;15.50;44.50;;;;;;5035735;28;20410;-76
2023/01/23 02:23:09;;;;;;;3.40;2.90;;;15.50;44.50;;;;;;5036116;28;20453;-76
2023/01/23 02:25:44;;;;;;;3.47;2.63;;;15.50;44.50;;;;;;5028563;28;20513;-76
2023/01/23 02:28:11;;;;;;;3.87;2.90;;;15.50;44.60;;;;;;5035700;28;20402;-76
2023/01/23 02:30:38;;;;;;;3.30;2.60;;;15.50;44.60;;;;;;5035654;28;20411;-76
2023/01/23 02:33:23;;;;;;;3.60;2.87;;;15.50;44.60;;;;;;5035764;28;20545;-76
2023/01/23 02:35:49;;;;;;;5.13;2.93;;;15.50;44.60;;;;;;5036384;28;20832;-76
2023/01/23 02:38:19;;;;;;;3.20;2.50;;;15.40;44.60;;;;;;5034806;28;20914;-76
2023/01/23 02:40:45;;;;;;;3.43;3.10;;;15.40;44.60;;;;;;5035943;28;20415;-76
2023/01/23 02:43:15;;;;;;;3.10;2.53;;;15.40;44.60;;;;;;5034619;28;20445;-76
2023/01/23 02:45:40;;;;;;;3.20;2.90;;;15.40;44.60;;;;;;5035637;28;20313;-76
2023/01/23 02:48:07;;;;;;;3.67;2.90;;;15.40;44.60;;;;;;5035701;28;20454;-76
2023/01/23 02:50:33;;;;;;;3.07;2.60;;;15.40;44.60;;;;;;5036182;28;20697;-76
2023/01/23 02:52:59;;;;;;;3.47;2.80;;;15.40;44.60;;;;;;5034149;28;20460;-76
2023/01/23 02:55:28;;;;;;;3.23;2.70;;;15.40;44.60;;;;;;5033883;28;20862;-76
2023/01/23 03:00:14;;;;;;;3.73;2.90;;;15.40;44.70;;;;;;5035441;28;20878;-76
2023/01/23 03:00:42;;;;;;;3.47;2.77;;;15.40;44.70;;;;;;5034871;28;20429;-76
2023/01/23 03:03:08;;;;;;;2.80;2.33;;;15.30;44.70;;;;;;5034495;28;20471;-76
2023/01/23 03:05:34;;;;;;;2.43;2.23;;;15.30;44.60;;;;;;5035035;28;20937;-76
2023/01/23 03:07:59;;;;;;;3.30;3.00;;;15.30;44.60;;;;;;5035497;28;20460;-76
2023/01/23 03:10:25;;;;;;;3.00;2.57;;;15.30;44.60;;;;;;5034781;28;20267;-76
2023/01/23 03:12:50;;;;;;;3.27;2.63;;;15.30;44.60;;;;;;5035319;28;20202;-77
2023/01/23 03:15:16;;;;;;;3.27;2.37;;;15.30;44.60;;;;;;5034752;28;20206;-76
2023/01/23 03:17:42;;;;;;;2.87;2.47;;;15.30;44.60;;;;;;5035391;28;20211;-76
2023/01/23 03:20:08;;;;;;;3.00;2.70;;;15.30;44.60;;;;;;5035225;28;20210;-77
2023/01/23 03:22:34;;;;;;;2.70;2.40;;;15.20;44.60;;;;;;5034719;28;20254;-76
2023/01/23 03:25:00;;;;;;;3.07;2.77;;;15.20;44.60;;;;;;5056164;22;20843;-75
2023/01/23 03:27:26;;;;;;;2.83;2.57;;;15.20;44.60;;;;;;5033813;28;20219;-76
2023/01/23 03:32:37;;;;;;;3.77;2.93;;;15.20;44.60;;;;;;5033909;28;20198;-76
2023/01/23 03:35:03;;;;;;;3.03;2.40;;;15.20;44.60;;;;;;5033709;28;20922;-76
2023/01/23 03:37:29;;;;;;;3.37;2.70;;;15.20;44.60;;;;;;5033572;28;20403;-76
2023/01/23 03:42:39;;;;;;;2.87;2.57;;;15.20;44.60;;;;;;5034103;28;20202;-76
2023/01/23 03:45:05;;;;;;;3.00;2.40;;;15.20;44.60;;;;;;5033688;28;20450;-76
2023/01/23 03:47:31;;;;;;;2.50;2.10;;;15.10;44.60;;;;;;5032169;28;20266;-75
2023/01/23 03:49:56;;;;;;;4.00;2.40;;;15.10;44.60;;;;;;5033373;28;20442;-75
2023/01/23 03:52:22;;;;;;;3.30;2.70;;;15.10;44.60;;;;;;5033543;28;20199;-76
2023/01/23 03:54:48;;;;;;;3.20;2.57;;;15.10;44.60;;;;;;5033312;28;20211;-76
2023/01/23 03:57:13;;;;;;;4.43;2.63;;;15.10;44.70;;;;;;5033568;28;20537;-76
2023/01/23 03:59:39;;;;;;;2.87;2.47;;;15.10;44.70;;;;;;5033686;28;20171;-76
2023/01/23 04:02:05;;;;;;;3.07;2.60;;;15.10;44.70;;;;;;5033319;28;20258;-75
2023/01/23 04:04:32;;;;;;;2.60;2.40;;;15.10;44.70;;;;;;5031871;28;20204;-75
2023/01/23 04:06:57;;;;;;;3.17;2.77;;;15.10;44.70;;;;;;5033438;28;20175;-75
2023/01/23 04:09:27;;;;;;;3.87;3.47;;;15.00;44.60;;;;;;5033737;28;20972;-75
2023/01/23 04:11:57;;;;;;;3.17;2.70;;;15.00;44.60;;;;;;5033474;28;20171;-75
2023/01/23 04:14:24;;;;;;;2.50;2.30;;;15.00;44.70;;;;;;5033956;28;20462;-76
2023/01/23 04:16:50;;;;;;;4.30;2.63;;;15.00;45.20;;;;;;5037502;28;20406;-75
2023/01/23 04:19:18;;;;;;;2.90;2.40;;;15.00;44.70;;;;;;5037201;28;20403;-76
2023/01/23 04:21:45;;;;;;;2.87;2.43;;;15.00;44.70;;;;;;5037196;28;20406;-76
2023/01/23 04:24:11;;;;;;;3.77;3.10;;;15.00;44.70;;;;;;5036989;28;21037;-74
2023/01/23 04:26:37;;;;;;;2.70;2.47;;;15.00;44.80;;;;;;5037566;28;20423;-75
2023/01/23 04:29:03;;;;;;;3.60;2.70;;;15.00;44.70;;;;;;5037431;28;20599;-75
2023/01/23 04:31:30;;;;;;;2.70;2.43;;;15.00;44.80;;;;;;5036937;28;20415;-76
2023/01/23 04:33:55;;;;;;;3.87;2.33;;;15.00;44.80;;;;;;5036840;28;20492;-75
2023/01/23 04:36:21;;;;;;;2.87;2.43;;;14.90;44.70;;;;;;5037090;28;20430;-76
2023/01/23 04:38:47;;;;;;;3.30;2.83;;;15.00;44.80;;;;;;5036960;28;20164;-74
2023/01/23 04:41:21;;;;;;;3.10;2.63;;;14.90;44.80;;;;;;5037097;28;20406;-75
2023/01/23 04:43:47;;;;;;;3.83;2.60;;;14.90;44.80;;;;;;5036879;28;20210;-75
2023/01/23 04:46:12;;;;;;;3.33;2.70;;;14.90;44.80;;;;;;5035593;28;20780;-74
2023/01/23 04:48:38;;;;;;;2.90;2.40;;;14.90;44.80;;;;;;5036967;28;20176;-77
2023/01/23 04:51:04;;;;;;;2.43;2.23;;;14.90;45.30;;;;;;5036800;28;20639;-77
2023/01/23 04:53:30;;;;;;;2.77;2.30;;;14.90;44.80;;;;;;5037105;28;20766;-75
2023/01/23 04:55:55;;;;;;;3.07;2.50;;;14.90;44.80;;;;;;5037062;28;20422;-76
2023/01/23 04:58:21;;;;;;;3.30;2.70;;;14.90;44.80;;;;;;5036572;28;20640;-75
2023/01/23 05:00:47;;;;;;;3.27;2.40;;;14.90;44.80;;;;;;5036576;28;20172;-75
2023/01/23 05:03:13;;;;;;;3.57;3.10;;;14.90;44.80;;;;;;5035286;28;20183;-74
2023/01/23 05:05:41;;;;;;;4.47;2.70;;;14.90;44.80;;;;;;5035257;28;20446;-74
2023/01/23 05:08:07;;;;;;;3.40;2.70;;;14.80;44.80;;;;;;5036525;28;20767;-76
2023/01/23 05:10:33;;;;;;;3.17;2.50;;;14.80;44.80;;;;;;5035221;28;20472;-75
2023/01/23 05:12:58;;;;;;;2.40;2.20;;;14.80;44.80;;;;;;5034877;28;20492;-76
2023/01/23 05:15:24;;;;;;;3.23;2.67;;;14.80;44.80;;;;;;5036254;28;20188;-77
2023/01/23 05:17:49;;;;;;;3.07;2.50;;;14.80;44.80;;;;;;5036384;28;20172;-76
2023/01/23 05:20:15;;;;;;;3.63;2.70;;;14.80;44.80;;;;;;5036453;28;20175;-74
2023/01/23 05:22:51;;;;;;;2.90;2.50;;;14.90;44.90;;;;;;5036704;28;20536;-75
2023/01/23 05:25:21;;;;;;;2.53;2.33;;;14.80;44.80;;;;;;5035675;28;20222;-76
2023/01/23 05:27:47;;;;;;;3.17;2.87;;;14.80;44.90;;;;;;5036594;28;20402;-74
2023/01/23 05:30:12;;;;;;;2.60;2.27;;;14.80;44.80;;;;;;5034575;28;20940;-76
2023/01/23 05:32:38;;;;;;;3.10;2.77;;;14.80;44.80;;;;;;5035863;28;20176;-74
2023/01/23 05:35:04;;;;;;;2.90;2.57;;;14.80;44.80;;;;;;5035848;28;20198;-75
2023/01/23 05:37:30;;;;;;;2.87;2.47;;;14.80;44.80;;;;;;5035661;28;20167;-76
2023/01/23 05:39:55;;;;;;;3.97;2.63;;;14.80;45.40;;;;;;5035935;28;20925;-76
2023/01/23 05:42:21;;;;;;;3.00;2.70;;;14.80;44.90;;;;;;5035986;28;20172;-76
2023/01/23 05:44:46;;;;;;;2.87;2.40;;;14.80;44.90;;;;;;5035471;28;20194;-74
2023/01/23 05:47:13;;;;;;;2.90;2.33;;;14.80;44.90;;;;;;5035498;28;20513;-75
2023/01/23 05:49:39;;;;;;;3.00;2.57;;;14.70;44.80;;;;;;5035844;28;20284;-74
2023/01/23 05:52:05;;;;;;;2.80;2.60;;;14.70;44.80;;;;;;5035547;28;20434;-74
2023/01/23 05:54:30;;;;;;;3.20;2.60;;;14.70;44.80;;;;;;5033985;28;20466;-76
2023/01/23 05:56:59;;;;;;;2.90;2.40;;;14.70;44.80;;;;;;5035272;28;20164;-76
2023/01/23 05:59:24;;;;;;;3.47;2.93;;;14.70;44.80;;;;;;5035492;28;20164;-75
2023/01/23 06:01:50;;;;;;;3.43;2.70;;;14.70;44.80;;;;;;5035316;28;20540;-76
2023/01/23 06:04:16;;;;;;;3.70;2.47;;;14.70;44.80;;;;;;5035079;28;20195;-75
2023/01/23 06:06:42;;;;;;;3.60;2.37;;;14.70;44.80;;;;;;5035377;28;20566;-76
2023/01/23 06:09:08;;;;;;;3.50;2.40;;;14.70;44.80;;;;;;5034928;28;20199;-77
2023/01/23 06:11:37;;;;;;;3.23;2.60;;;14.70;44.80;;;;;;5035123;28;20477;-74
2023/01/23 06:14:03;;;;;;;2.53;2.30;;;14.70;44.90;;;;;;5034711;28;20477;-74
2023/01/23 06:16:28;;;;;;;3.20;2.50;;;14.70;44.90;;;;;;5033912;28;20410;-76
2023/01/23 06:18:54;;;;;;;3.97;2.50;;;14.70;44.90;;;;;;5035677;28;20501;-75
2023/01/23 06:21:20;;;;;;;3.53;2.60;;;14.70;45.50;;;;;;5035293;28;20199;-75
2023/01/23 06:23:46;;;;;;;3.20;2.77;;;14.70;45.00;;;;;;5034880;28;20689;-76
2023/01/23 06:26:11;;;;;;;3.70;2.60;;;14.70;45.30;;;;;;5035095;28;20176;-75
2023/01/23 06:28:38;;;;;;;6.13;3.70;;;14.60;45.10;;;;;;5035209;28;20403;-76
2023/01/23 06:31:05;;;;;;;4.30;3.23;;;14.60;45.10;;;;;;5035666;28;20218;-76
2023/01/23 06:33:33;;;;;;;3.10;2.20;;;14.60;45.20;;;;;;5036688;28;20458;-76
2023/01/23 06:36:00;;;;;;;2.57;2.20;;;14.60;45.20;;;;;;5036256;28;20407;-76
2023/01/23 06:38:27;;;;;;;2.63;2.43;;;14.60;45.30;;;;;;5035050;28;20557;-77
2023/01/23 06:40:52;;;;;;;3.80;2.57;;;14.70;45.50;;;;;;5035245;28;20501;-75
2023/01/23 06:43:19;;;;;;;3.63;2.80;;;14.70;45.50;;;;;;5034772;28;20558;-76
2023/01/23 06:45:45;;;;;;;4.40;2.87;;;14.60;45.40;;;;;;5033170;28;20195;-76
2023/01/23 06:48:11;;;;;;;2.80;2.50;;;14.60;45.40;;;;;;5034711;28;20732;-76
2023/01/23 06:50:38;;;;;;;4.63;2.70;;;14.60;45.40;;;;;;5034411;28;20437;-77
2023/01/23 06:53:04;;;;;;;3.13;2.80;;;14.60;45.50;;;;;;5034641;28;20277;-76
2023/01/23 06:55:30;;;;;;;2.70;2.20;;;14.60;45.40;;;;;;5034177;28;20434;-76
2023/01/23 06:57:55;;;;;;;4.87;2.90;;;14.60;45.50;;;;;;5034918;28;20456;-74
2023/01/23 07:00:21;;;;;;;3.50;3.20;;;14.60;45.50;;;;;;5034377;28;20405;-76
2023/01/23 07:02:47;;;;;;;4.33;2.93;;;14.60;45.50;;;;;;5034688;28;20176;-75
2023/01/23 07:05:13;;;;;;;4.10;2.50;;;14.60;45.50;;;;;;5034474;28;20194;-76
2023/01/23 07:07:39;;;;;;;3.10;2.43;;;14.60;45.50;;;;;;5034380;28;20178;-76
2023/01/23 07:10:05;;;;;;;4.30;2.63;;;14.60;45.50;;;;;;5034292;28;20504;-76
2023/01/23 07:12:30;;;;;;;6.43;2.70;;;14.60;45.50;;;;;;5034838;28;20176;-81
2023/01/23 07:14:56;;;;;;;4.93;3.43;;;14.60;46.20;;;;;;5035335;28;20445;-82
2023/01/23 07:17:22;;;;;;;4.70;3.40;;;14.60;45.40;;;;;;5034230;28;20186;-75
2023/01/23 07:19:47;;;;;;;4.53;3.80;;;14.60;47.30;;;;;;5034124;28;20186;-76
2023/01/23 07:22:19;;;;;;;5.43;3.43;;;14.60;44.80;;;;;;5034259;28;20542;-77
2023/01/23 07:24:46;;;;;;;4.20;3.50;;;15.20;44.40;;;;;;5034002;28;20210;-77
2023/01/23 07:27:12;;;;;;;6.73;4.67;;;16.20;42.90;;;;;;5032635;28;20909;-77
2023/01/23 07:29:37;;;;;;;6.20;4.07;;;16.90;41.30;;;;;;5033898;28;20403;-77
2023/01/23 07:32:03;;;;;;;11.27;4.43;;;17.10;40.90;;;;;;5034078;28;20255;-76
2023/01/23 07:34:29;;;;;;;4.67;4.10;;;17.20;40.90;;;;;;5032472;28;20230;-78
2023/01/23 07:36:55;;;;;;;5.03;3.40;;;17.80;40.40;;;;;;5033726;28;20175;-75
2023/01/23 07:39:20;;;;;;;3.53;3.10;;;18.10;39.90;;;;;;5034068;28;20591;-75
2023/01/23 07:41:46;;;;;;;7.87;4.10;;;18.10;39.70;;;;;;5033614;28;20175;-77
2023/01/23 07:44:16;;;;;;;5.30;3.83;;;18.10;40.00;;;;;;5033751;28;20235;-75
2023/01/23 07:46:43;;;;;;;6.30;4.67;;;18.40;40.10;;;;;;5033583;28;20171;-77
2023/01/23 07:49:08;;;;;;;5.60;3.40;;;18.50;39.70;;;;;;5033189;28;20902;-78
2023/01/23 07:51:34;;;;;;;4.80;3.70;;;18.60;39.60;;;;;;5033248;28;20399;-77
2023/01/23 07:54:00;;;;;;;4.30;3.77;;;18.60;39.60;;;;;;5033132;28;20257;-76
2023/01/23 07:56:26;;;;;;;4.77;3.53;;;18.60;39.50;;;;;;5033973;28;20254;-78
2023/01/23 07:58:51;;;;;;;4.87;3.83;;;18.50;39.50;;;;;;5033330;28;20250;-77
2023/01/23 08:01:18;;;;;;;4.77;3.10;;;18.40;39.90;;;;;;5033700;28;20175;-76
2023/01/23 08:03:44;;;;;;;4.60;3.30;;;18.90;39.60;;;;;;5033474;28;20527;-75
2023/01/23 08:06:10;;;;;;;5.67;3.83;;;19.10;38.80;;;;;;5033629;28;20505;-77
2023/01/23 08:08:36;;;;;;;4.43;3.27;;;19.10;38.90;;;;;;5032201;28;20893;-77
2023/01/23 08:11:10;;;;;;;4.27;3.87;;;19.10;39.00;;;;;;5032140;28;20183;-77
2023/01/23 08:13:36;;;;;;;4.27;3.33;;;19.50;38.90;;;;;;5033600;28;20195;-77
2023/01/23 08:16:02;;;;;;;5.07;3.90;;;19.60;38.20;;;;;;5033520;28;20815;-77
2023/01/23 08:18:29;;;;;;;5.20;3.43;;;19.60;38.20;;;;;;5033447;28;20465;-77
2023/01/23 08:20:56;;;;;;;3.20;2.90;;;19.50;38.30;;;;;;5032192;28;20399;-76
2023/01/23 08:23:27;;;;;;;3.73;3.23;;;19.70;38.50;;;;;;5033684;28;20765;-75
2023/01/23 08:25:54;;;;;;;4.63;3.33;;;19.90;38.10;;;;;;5031790;28;20461;-76
2023/01/23 08:28:21;;;;;;;4.20;3.20;;;19.80;38.00;;;;;;5031856;28;20406;-78
2023/01/23 08:30:47;;;;;;;3.83;3.20;;;19.70;38.40;;;;;;5033182;28;20877;-76
2023/01/23 08:33:13;;;;;;;5.57;4.00;;;19.60;38.60;;;;;;5033019;28;20476;-76
2023/01/23 08:35:46;;;;;;;4.23;2.97;;;19.50;38.90;;;;;;5033132;28;20529;-78
2023/01/23 08:38:12;;;;;;;4.73;3.17;;;19.30;39.40;;;;;;5033074;28;20489;-76
2023/01/23 08:40:37;;;;;;;6.37;4.00;;;19.40;39.90;;;;;;5032937;28;20441;-75
2023/01/23 08:43:03;;;;;;;5.73;3.00;;;19.60;40.50;;;;;;5033645;28;20172;-76
2023/01/23 08:45:29;;;;;;;4.30;3.63;;;19.70;40.10;;;;;;5032897;28;20194;-76
2023/01/23 08:47:57;;;;;;;3.97;3.37;;;19.60;40.30;;;;;;5033124;28;20225;-79
2023/01/23 08:50:22;;;;;;;4.93;4.00;;;19.90;40.20;;;;;;5033201;28;20643;-76
2023/01/23 08:52:48;;;;;;;4.77;3.37;;;20.00;39.80;;;;;;5033462;28;20434;-76
2023/01/23 08:55:13;;;;;;;7.43;3.07;;;20.00;39.80;;;;;;5032891;28;20191;-77
2023/01/23 08:57:39;;;;;;;8.60;4.30;;;19.90;40.20;;;;;;5032990;28;20176;-76
2023/01/23 09:00:05;;;;;;;4.70;3.60;;;19.70;40.80;;;;;;5033802;28;20191;-76
2023/01/23 09:02:31;;;;;;;6.37;3.20;;;19.90;40.50;;;;;;5037878;28;20179;-76
2023/01/23 09:04:57;;;;;;;5.17;3.53;;;19.90;40.50;;;;;;5037876;28;20430;-76
2023/01/23 09:07:22;;;;;;;4.97;4.17;;;19.70;40.90;;;;;;5047380;28;20202;-76
2023/01/23 09:09:48;;;;;;;6.10;3.93;;;19.80;40.90;;;;;;5046818;28;20620;-74
2023/01/23 09:12:13;;;;;;;6.40;3.57;;;19.80;41.10;;;;;;5049332;28;20187;-75
2023/01/23 09:14:39;;;;;;;5.13;3.67;;;19.70;41.30;;;;;;5039105;28;20362;-73
2023/01/23 09:17:05;;;;;;;3.97;3.37;;;19.60;41.50;;;;;;5036808;28;20222;-75
2023/01/23 09:19:31;;;;;;;4.23;3.30;;;20.00;41.20;;;;;;5036585;28;20306;-76
2023/01/23 09:21:57;;;;;;;4.60;3.77;;;20.00;40.80;;;;;;5036434;28;20418;-75
2023/01/23 09:24:23;;;;;;;4.40;3.60;;;20.00;40.70;;;;;;5036143;28;20457;-76
2023/01/23 09:26:48;;;;;;;4.97;3.40;;;20.10;40.70;;;;;;5081199;23;20231;-76
2023/01/23 09:29:17;;;;;;;6.20;4.43;;;20.40;40.30;;;;;;5036445;28;20167;-79
2023/01/23 09:31:42;;;;;;;5.13;3.40;;;20.50;40.20;;;;;;5036680;28;20179;-75
2023/01/23 09:34:08;;;;;;;7.07;3.50;;;20.40;40.10;;;;;;5036296;28;20456;-80
2023/01/23 09:36:34;;;;;;;6.93;3.63;;;20.30;40.30;;;;;;5035500;28;20217;-76
2023/01/23 09:39:02;;;;;;;5.30;3.13;;;20.10;40.60;;;;;;5035223;28;20176;-76
2023/01/23 09:41:28;;;;;;;5.40;3.60;;;19.90;40.80;;;;;;5036584;28;20171;-76
2023/01/23 09:43:59;;;;;;;5.90;3.90;;;19.70;41.00;;;;;;5035850;28;20426;-75
2023/01/23 09:46:43;;;;;;;5.27;3.67;;;19.40;41.30;;;;;;5036228;28;20454;-74
2023/01/23 09:49:31;;;;;;;6.20;3.00;;;19.40;41.80;;;;;;5036443;28;20434;-77
2023/01/23 09:52:02;;;;;;;6.30;3.70;;;20.00;40.70;;;;;;5035291;28;20442;-80
2023/01/23 09:54:45;;;;;;;4.83;4.00;;;20.20;40.40;;;;;;5036141;28;20537;-81
2023/01/23 09:57:44;;;;;;;3.43;3.10;;;20.30;40.30;;;;;;5034554;28;20553;-81
2023/01/23 10:00:39;;;;;;;5.40;4.03;;;20.20;40.30;;;;;;5026348;28;20510;-80
2023/01/23 10:03:14;;;;;;;8.87;3.70;;;20.10;40.60;;;;;;5033628;28;20454;-81
2023/01/23 10:06:02;;;;;;;5.17;3.37;;;20.10;40.80;;;;;;5036054;28;20925;-81
2023/01/23 10:08:46;;;;;;;5.87;3.40;;;20.40;40.40;;;;;;5034726;28;20514;-82
2023/01/23 10:11:25;;;;;;;4.23;3.17;;;20.50;40.00;;;;;;5036131;28;20762;-82
2023/01/23 10:14:16;;;;;;;3.70;2.87;;;20.50;40.00;;;;;;5035773;28;20456;-81
2023/01/23 10:16:46;;;;;;;3.63;3.30;;;20.50;40.20;;;;;;5035817;28;20429;-82
2023/01/23 10:19:22;;;;;;;4.90;3.67;;;20.90;39.70;;;;;;5035701;28;20437;-82
2023/01/23 10:22:27;;;;;;;6.13;3.97;;;21.10;39.20;;;;;;5035513;28;20398;-82
2023/01/23 10:24:57;;;;;;;3.37;3.07;;;21.10;39.20;;;;;;5027847;28;20410;-79
2023/01/23 10:27:31;;;;;;;4.53;3.20;;;21.00;39.40;;;;;;5035542;28;20427;-82
2023/01/23 10:30:21;;;;;;;4.07;3.23;;;20.80;39.60;;;;;;5035823;28;20397;-81
2023/01/23 10:33:12;;;;;;;6.00;4.53;;;20.60;39.80;;;;;;5035491;28;20437;-77
2023/01/23 10:36:01;;;;;;;4.60;3.50;;;20.30;40.00;;;;;;5035110;28;20454;-77
2023/01/23 10:38:40;;;;;;;4.83;3.43;;;20.00;40.50;;;;;;5035348;28;20914;-77
2023/01/23 10:41:18;;;;;;;3.70;3.37;;;19.70;41.30;;;;;;5033889;28;20987;-76
2023/01/23 10:43:48;;;;;;;6.53;4.10;;;19.50;41.10;;;;;;5034911;28;20456;-77
2023/01/23 10:46:19;;;;;;;4.90;3.10;;;19.40;41.40;;;;;;5034940;28;20438;-76
2023/01/23 10:48:49;;;;;;;4.10;3.10;;;19.20;41.20;;;;;;5035406;28;20415;-81
2023/01/23 10:51:25;;;;;;;4.57;3.43;;;19.10;41.20;;;;;;5033785;28;20505;-81
2023/01/23 10:54:05;;;;;;;3.70;3.30;;;19.00;41.90;;;;;;5035071;28;20808;-81
2023/01/23 10:56:44;;;;;;;4.50;3.23;;;19.40;41.40;;;;;;5035726;28;20422;-84
2023/01/23 10:59:21;;;;;;;4.70;3.33;;;19.60;40.90;;;;;;5035143;28;20795;-84
2023/01/23 11:02:17;;;;;;;5.70;3.60;;;19.70;40.60;;;;;;5035295;28;20521;-84
2023/01/23 11:04:45;;;;;;;3.30;3.00;;;19.70;40.50;;;;;;5034078;28;20418;-84
2023/01/23 11:07:17;;;;;;;5.20;3.63;;;20.40;40.20;;;;;;5034884;28;20505;-84
2023/01/23 11:10:19;;;;;;;3.30;3.00;;;20.60;39.50;;;;;;5035326;28;20406;-84
2023/01/23 11:12:50;;;;;;;3.60;3.30;;;20.70;39.00;;;;;;5035464;28;20889;-84
2023/01/23 11:15:27;;;;;;;3.63;3.23;;;20.70;38.90;;;;;;5037276;28;20445;-84
2023/01/23 11:17:55;;;;;;;4.40;3.50;;;20.70;39.10;;;;;;5034317;28;20418;-84
2023/01/23 11:20:32;;;;;;;3.87;3.47;;;20.40;39.30;;;;;;5035585;28;20774;-84
2023/01/23 11:23:18;;;;;;;3.70;3.00;;;20.20;39.70;;;;;;5033981;28;20937;-84
2023/01/23 11:25:48;;;;;;;3.57;3.27;;;19.90;40.00;;;;;;5034752;28;20458;-84
2023/01/23 11:28:23;;;;;;;4.07;3.50;;;19.70;40.20;;;;;;5033484;28;20422;-78
2023/01/23 11:31:08;;;;;;;4.10;3.50;;;19.60;40.30;;;;;;5032988;28;20426;-79
2023/01/23 11:33:58;;;;;;;3.67;2.87;;;19.40;40.50;;;;;;5034725;28;20453;-78
2023/01/23 11:36:47;;;;;;;5.30;3.53;;;19.40;40.80;;;;;;5034316;28;20436;-78
2023/01/23 11:39:25;;;;;;;3.90;3.47;;;19.30;40.90;;;;;;5032989;28;20422;-78
2023/01/23 11:41:51;;;;;;;3.87;3.50;;;19.20;41.00;;;;;;5034320;28;20411;-78
2023/01/23 11:44:19;;;;;;;4.27;3.40;;;19.20;41.10;;;;;;5034235;28;20414;-78
2023/01/23 11:47:06;;;;;;;3.17;2.87;;;19.20;41.10;;;;;;5034199;28;20634;-78
2023/01/23 11:49:58;;;;;;;4.33;3.50;;;19.20;41.10;;;;;;5034427;28;20508;-79
2023/01/23 11:52:35;;;;;;;3.97;3.50;;;19.20;41.20;;;;;;5032941;28;20447;-78
2023/01/23 11:55:24;;;;;;;4.27;3.30;;;19.20;41.30;;;;;;5032973;28;20544;-84
2023/01/23 11:58:19;;;;;;;4.13;3.27;;;19.20;41.30;;;;;;5028999;28;20431;-84
2023/01/23 12:01:10;;;;;;;4.33;3.50;;;19.20;41.30;;;;;;5034110;28;20517;-78
2023/01/23 12:03:48;;;;;;;4.80;3.60;;;19.10;41.30;;;;;;5032678;28;20418;-83
2023/01/23 12:06:40;;;;;;;4.97;3.40;;;19.10;41.20;;;;;;5034071;28;20436;-84
2023/01/23 12:09:15;;;;;;;4.40;3.30;;;19.10;41.50;;;;;;5014576;28;20480;-83
2023/01/23 12:12:10;;;;;;;3.87;3.50;;;19.10;41.50;;;;;;5034219;28;20411;-76
2023/01/23 12:14:45;;;;;;;4.10;3.50;;;19.10;41.50;;;;;;5034089;28;20505;-77
2023/01/23 12:17:14;;;;;;;4.00;3.60;;;19.00;41.50;;;;;;5034054;28;20425;-77
2023/01/23 12:19:48;;;;;;;4.00;3.43;;;19.00;41.50;;;;;;5034350;28;20422;-80
2023/01/23 12:22:26;;;;;;;4.40;3.53;;;19.00;41.50;;;;;;5034368;28;20405;-81
2023/01/23 12:25:13;;;;;;;4.03;3.60;;;19.00;41.50;;;;;;5034850;28;20426;-80
2023/01/23 12:27:47;;;;;;;6.00;3.57;;;18.90;41.60;;;;;;5035907;28;20406;-81
2023/01/23 12:30:32;;;;;;;4.40;3.40;;;18.90;41.60;;;;;;5037181;28;20390;-83
2023/01/23 12:33:08;;;;;;;4.53;3.43;;;18.80;41.60;;;;;;5042997;28;20452;-83
2023/01/23 12:35:39;;;;;;;3.50;3.20;;;18.80;41.60;;;;;;5050780;28;20426;-83
2023/01/23 12:38:24;;;;;;;4.53;3.83;;;18.80;41.80;;;;;;5053808;28;20418;-77
2023/01/23 12:40:52;;;;;;;6.23;3.40;;;18.70;41.90;;;;;;5049855;28;20421;-79
2023/01/23 12:43:33;;;;;;;3.23;2.93;;;18.70;42.50;;;;;;5049851;28;20406;-79
2023/01/23 12:46:10;;;;;;;3.33;3.03;;;18.70;42.10;;;;;;5044648;28;20430;-79
2023/01/23 12:48:46;;;;;;;3.97;3.57;;;18.60;42.00;;;;;;5040166;28;20441;-79
2023/01/23 12:51:25;;;;;;;3.73;3.03;;;18.60;41.90;;;;;;5039422;28;20787;-79
2023/01/23 12:53:55;;;;;;;5.10;3.40;;;18.60;42.00;;;;;;5038582;28;20450;-78
2023/01/23 12:56:32;;;;;;;7.80;3.40;;;18.60;42.00;;;;;;5037576;28;20434;-76
2023/01/23 12:59:07;;;;;;;3.50;3.03;;;18.50;42.10;;;;;;5038911;28;20406;-76
2023/01/23 13:01:41;;;;;;;3.73;3.10;;;18.50;42.00;;;;;;5037817;28;20405;-76
2023/01/23 13:04:06;;;;;;;4.03;3.40;;;18.50;42.10;;;;;;5037964;28;20501;-81
2023/01/23 13:06:40;;;;;;;4.00;3.20;;;18.50;42.20;;;;;;5038096;28;20506;-81
2023/01/23 13:09:28;;;;;;;4.33;3.20;;;18.50;42.10;;;;;;5038342;28;20171;-84